Time;durP1;ratioP1;P1;durP2;ratioP2;P2;SDS_P1;SDS_P2;PMS_P1;PMS_P2;Temp;Humidity;BMP_temperature;BMP_pressure;BME280_temperature;BME280_humidity;BME280_pressure;Samples;Min_cycle;Max_cycle;Signal;HPM_P1;HPM_P2
2022/01/21 00:00:26;;;;;;;5.90;2.00;;;4.10;99.90;;;;;;4946107;28;20200;-77
2022/01/21 00:02:52;;;;;;;3.13;1.53;;;4.00;99.90;;;;;;4946353;28;20055;-77
2022/01/21 00:05:18;;;;;;;13.73;2.07;;;3.80;99.90;;;;;;4964270;28;20066;-77
2022/01/21 00:07:44;;;;;;;4.60;1.10;;;3.70;99.90;;;;;;4963040;28;20738;-76
2022/01/21 00:10:10;;;;;;;0.97;0.77;;;3.60;99.90;;;;;;4962386;28;20046;-76
2022/01/21 00:12:37;;;;;;;0.83;0.60;;;3.50;99.90;;;;;;4962272;28;20179;-76
2022/01/21 00:15:05;;;;;;;1.07;0.97;;;3.50;99.90;;;;;;4962615;28;20043;-77
2022/01/21 00:17:31;;;;;;;3.40;0.93;;;3.40;99.90;;;;;;4963067;28;20073;-76
2022/01/21 00:30:54;;;;;;;1.80;0.63;;;3.30;99.90;;;;;;4946007;28;20679;-76
2022/01/21 00:33:19;;;;;;;11.03;1.07;;;3.20;99.90;;;;;;4945858;28;20046;-77
2022/01/21 00:35:45;;;;;;;0.73;0.73;;;3.30;99.90;;;;;;4946079;28;20151;-76
2022/01/21 00:38:13;;;;;;;6.23;1.60;;;3.30;99.90;;;;;;4963274;28;20053;-76
2022/01/21 00:40:39;;;;;;;4.00;1.70;;;3.30;99.90;;;;;;4962491;28;20061;-76
2022/01/21 00:43:29;;;;;;;4.80;1.17;;;3.30;99.90;;;;;;4944667;28;20054;-77
2022/01/21 00:45:55;;;;;;;1.23;0.80;;;3.30;99.90;;;;;;4961704;28;20047;-76
2022/01/21 00:48:21;;;;;;;0.63;0.63;;;3.30;99.90;;;;;;4963171;28;20375;-77
2022/01/21 00:50:50;;;;;;;0.87;0.87;;;3.30;99.90;;;;;;4945294;28;20472;-76
2022/01/21 00:53:15;;;;;;;5.07;2.23;;;3.40;99.90;;;;;;4962684;28;20046;-77
2022/01/21 00:55:41;;;;;;;1.23;0.87;;;3.40;99.90;;;;;;4963026;28;20046;-77
2022/01/21 00:58:07;;;;;;;19.83;1.90;;;3.40;99.90;;;;;;4960743;28;20043;-77
2022/01/21 01:00:32;;;;;;;3.30;0.93;;;3.40;99.90;;;;;;4962078;28;20047;-77
2022/01/21 01:02:59;;;;;;;0.33;0.33;;;3.40;99.90;;;;;;4962336;28;20176;-77
2022/01/21 01:05:25;;;;;;;2.90;0.70;;;3.40;99.90;;;;;;4963091;28;20050;-77
2022/01/21 01:07:53;;;;;;;4.13;0.53;;;3.40;99.90;;;;;;4946708;28;20081;-77
2022/01/21 01:10:34;;;;;;;14.10;1.77;;;3.50;99.90;;;;;;4945028;28;20046;-77
2022/01/21 01:19:53;;;;;;;12.93;1.63;;;3.50;99.90;;;;;;4961360;28;20102;-76
2022/01/21 01:21:14;;;;;;;2.70;0.83;;;3.50;99.90;;;;;;4945075;28;20071;-76
2022/01/21 01:24:02;;;;;;;1.47;1.20;;;3.50;99.90;;;;;;4945138;28;20255;-76
2022/01/21 01:29:10;;;;;;;1.77;0.70;;;3.60;99.90;;;;;;4961237;28;20106;-77
2022/01/21 01:31:35;;;;;;;0.37;0.37;;;3.60;99.90;;;;;;4961250;28;20058;-76
2022/01/21 01:34:02;;;;;;;2.10;1.90;;;3.60;99.90;;;;;;4944767;28;20089;-76
2022/01/21 01:36:28;;;;;;;0.47;0.47;;;3.60;99.90;;;;;;4944000;28;20237;-77
2022/01/21 01:39:04;;;;;;;5.80;1.33;;;3.60;99.90;;;;;;4961773;28;20097;-77
2022/01/21 01:41:37;;;;;;;1.37;1.00;;;3.60;99.90;;;;;;4961213;28;20090;-77
2022/01/21 01:49:37;;;;;;;2.60;0.73;;;3.60;99.90;;;;;;4961101;28;20181;-77
2022/01/21 01:52:07;;;;;;;0.20;0.20;;;3.60;99.90;;;;;;4944657;28;20070;-76
2022/01/21 01:54:36;;;;;;;0.87;0.60;;;3.60;99.90;;;;;;4961078;28;20046;-76
2022/01/21 01:57:02;;;;;;;4.27;1.00;;;3.60;99.90;;;;;;4960429;28;20089;-76
2022/01/21 01:59:28;;;;;;;1.07;0.90;;;3.70;99.90;;;;;;4960517;28;20046;-77
2022/01/21 02:01:56;;;;;;;5.03;0.80;;;3.60;99.90;;;;;;4962070;28;20043;-77
2022/01/21 02:04:23;;;;;;;2.13;0.73;;;3.70;99.90;;;;;;4946712;23;20142;-77
2022/01/21 02:06:49;;;;;;;3.90;1.10;;;3.70;99.90;;;;;;4904930;29;20407;-77
2022/01/21 02:09:15;;;;;;;1.33;1.23;;;3.70;99.90;;;;;;4900151;29;20095;-76
2022/01/21 02:11:41;;;;;;;4.63;1.17;;;3.70;99.90;;;;;;4923488;29;20067;-77
2022/01/21 02:14:10;;;;;;;0.67;0.67;;;3.70;99.90;;;;;;4919894;29;20565;-77
2022/01/21 02:22:22;;;;;;;0.33;0.33;;;3.80;99.90;;;;;;4906717;29;20148;-77
2022/01/21 02:24:57;;;;;;;0.57;0.43;;;3.80;99.90;;;;;;4924280;29;20062;-77
2022/01/21 02:27:23;;;;;;;3.00;1.50;;;3.80;99.90;;;;;;4923234;29;20048;-77
2022/01/21 02:30:01;;;;;;;4.60;0.93;;;3.80;99.90;;;;;;4907299;29;20049;-77
2022/01/21 02:32:27;;;;;;;0.60;0.47;;;3.80;99.90;;;;;;4906483;29;20052;-77
2022/01/21 02:34:52;;;;;;;0.87;0.73;;;3.80;99.90;;;;;;4923693;29;20469;-77
2022/01/21 02:37:20;;;;;;;2.90;1.03;;;3.80;99.90;;;;;;4924249;29;20079;-77
2022/01/21 02:39:47;;;;;;;0.33;0.33;;;3.80;99.90;;;;;;4922921;29;20055;-77
2022/01/21 02:42:13;;;;;;;0.37;0.37;;;3.80;99.90;;;;;;4906466;29;20485;-77
2022/01/21 02:44:39;;;;;;;0.90;0.60;;;3.80;99.90;;;;;;4906968;29;20055;-76
2022/01/21 02:47:06;;;;;;;0.30;0.30;;;3.80;99.90;;;;;;4906911;29;20055;-76
2022/01/21 02:49:32;;;;;;;5.10;0.70;;;3.70;99.90;;;;;;4907063;29;20055;-76
2022/01/21 02:52:01;;;;;;;8.60;1.47;;;3.70;99.90;;;;;;4923292;29;20051;-77
2022/01/21 02:54:30;;;;;;;2.27;0.93;;;3.70;99.90;;;;;;4923565;29;20118;-77
2022/01/21 02:56:56;;;;;;;1.17;0.60;;;3.70;99.90;;;;;;4922880;29;20559;-77
2022/01/21 02:59:22;;;;;;;3.53;0.27;;;3.70;99.90;;;;;;4906073;29;20044;-77
2022/01/21 03:01:49;;;;;;;0.53;0.30;;;3.70;99.90;;;;;;4904874;29;20044;-77
2022/01/21 03:04:23;;;;;;;10.53;0.97;;;3.70;99.90;;;;;;4895030;29;20101;-77
2022/01/21 03:06:48;;;;;;;12.00;1.50;;;3.70;99.90;;;;;;4906840;29;20127;-77
2022/01/21 03:09:14;;;;;;;2.33;0.93;;;3.60;99.90;;;;;;4907137;29;20127;-77
2022/01/21 03:11:39;;;;;;;3.00;0.90;;;3.60;99.90;;;;;;4922421;29;20133;-76
2022/01/21 03:14:05;;;;;;;0.50;0.50;;;3.60;99.90;;;;;;4907156;29;20056;-76
2022/01/21 03:16:31;;;;;;;0.23;0.23;;;3.60;99.90;;;;;;4890687;29;20054;-77
2022/01/21 03:18:57;;;;;;;2.27;1.10;;;3.60;99.90;;;;;;4906380;29;20059;-77
2022/01/21 03:21:22;;;;;;;1.90;0.33;;;3.60;99.90;;;;;;4923362;29;20079;-77
2022/01/21 03:23:51;;;;;;;1.07;0.77;;;3.60;99.90;;;;;;4937063;29;20043;-77
2022/01/21 03:26:19;;;;;;;2.73;1.27;;;3.60;99.90;;;;;;4942704;29;20047;-77
2022/01/21 03:28:50;;;;;;;2.63;1.40;;;3.60;99.90;;;;;;4924811;29;20086;-77
2022/01/21 03:31:17;;;;;;;1.30;1.20;;;3.60;99.90;;;;;;4909652;29;20126;-77
2022/01/21 03:33:43;;;;;;;7.30;1.07;;;3.60;99.90;;;;;;4906627;29;20406;-77
2022/01/21 03:36:09;;;;;;;0.63;0.27;;;3.60;99.90;;;;;;4923425;29;20107;-77
2022/01/21 03:38:35;;;;;;;5.23;1.77;;;3.60;99.90;;;;;;4906626;29;20059;-77
2022/01/21 03:41:01;;;;;;;1.00;0.77;;;3.60;99.90;;;;;;4923316;29;20040;-77
2022/01/21 03:43:27;;;;;;;5.87;1.17;;;3.60;99.90;;;;;;4921845;29;20134;-77
2022/01/21 03:45:53;;;;;;;0.10;0.10;;;3.60;99.90;;;;;;4923378;29;20123;-77
2022/01/21 03:48:19;;;;;;;8.97;1.97;;;3.60;99.90;;;;;;4905986;29;20051;-77
2022/01/21 03:50:45;;;;;;;1.40;0.70;;;3.60;99.90;;;;;;4925658;29;20209;-77
2022/01/21 03:53:11;;;;;;;3.23;1.17;;;3.70;99.90;;;;;;4930835;29;20162;-77
2022/01/21 03:55:38;;;;;;;0.40;0.40;;;3.70;99.90;;;;;;4909521;29;20094;-77
2022/01/21 03:58:05;;;;;;;5.90;1.33;;;3.70;99.90;;;;;;4926217;29;20048;-77
2022/01/21 04:00:37;;;;;;;1.37;1.17;;;3.70;99.90;;;;;;4926592;29;20055;-76
2022/01/21 04:03:03;;;;;;;2.08;0.65;;;3.70;99.90;;;;;;4893631;29;20059;-77
2022/01/21 04:05:29;;;;;;;2.53;2.33;;;3.80;99.90;;;;;;4924983;29;20066;-77
2022/01/21 04:07:56;;;;;;;0.13;0.13;;;3.70;99.90;;;;;;4926399;29;20143;-77
2022/01/21 04:10:22;;;;;;;0.77;0.70;;;3.70;99.90;;;;;;4926425;29;20052;-77
2022/01/21 04:12:48;;;;;;;0.83;0.83;;;3.80;99.90;;;;;;4909324;29;20051;-77
2022/01/21 04:15:14;;;;;;;0.83;0.77;;;3.70;99.90;;;;;;4909454;29;20047;-77
2022/01/21 04:17:40;;;;;;;0.20;0.20;;;3.80;99.90;;;;;;4925873;29;20459;-77
2022/01/21 04:20:07;;;;;;;15.30;1.80;;;3.70;99.90;;;;;;4909438;29;20052;-77
2022/01/21 04:22:33;;;;;;;2.23;1.53;;;3.70;99.90;;;;;;4926887;29;20050;-76
2022/01/21 04:25:00;;;;;;;2.23;0.80;;;3.70;99.90;;;;;;4945379;29;20047;-77
2022/01/21 04:27:26;;;;;;;1.80;0.83;;;3.70;99.90;;;;;;4942665;29;20256;-77
2022/01/21 04:29:52;;;;;;;0.77;0.77;;;3.70;99.90;;;;;;4922634;29;20047;-77
2022/01/21 04:32:17;;;;;;;0.67;0.63;;;3.70;99.90;;;;;;4924661;29;21019;-77
2022/01/21 04:34:43;;;;;;;0.30;0.30;;;3.70;99.90;;;;;;4924831;29;20047;-77
2022/01/21 04:37:11;;;;;;;0.70;0.70;;;3.70;99.90;;;;;;4924595;29;20048;-77
2022/01/21 04:39:44;;;;;;;1.57;0.50;;;3.80;99.90;;;;;;4908404;29;20051;-77
2022/01/21 04:47:31;;;;;;;2.57;2.20;;;3.80;99.90;;;;;;4925478;29;20111;-76
2022/01/21 04:49:57;;;;;;;0.87;0.67;;;3.80;99.90;;;;;;4909084;29;20126;-76
2022/01/21 04:52:24;;;;;;;0.80;0.80;;;3.80;99.90;;;;;;4908615;29;20146;-77
2022/01/21 04:54:51;;;;;;;7.93;0.97;;;3.80;99.90;;;;;;4925784;29;20071;-77
2022/01/21 04:57:17;;;;;;;0.33;0.33;;;3.90;99.90;;;;;;4924275;29;20055;-77
2022/01/21 04:59:42;;;;;;;1.23;1.13;;;3.80;99.90;;;;;;4926275;29;20055;-77
2022/01/21 05:02:08;;;;;;;0.57;0.57;;;3.80;99.90;;;;;;4907744;29;20043;-77
2022/01/21 05:04:35;;;;;;;0.60;0.60;;;3.80;99.90;;;;;;4924566;29;20051;-77
2022/01/21 05:07:03;;;;;;;3.97;1.47;;;3.80;99.90;;;;;;4908157;29;20605;-77
2022/01/21 05:09:31;;;;;;;9.20;1.07;;;3.80;99.90;;;;;;4908029;29;20052;-76
2022/01/21 05:11:58;;;;;;;0.40;0.40;;;3.80;99.90;;;;;;4924920;29;20040;-77
2022/01/21 05:14:38;;;;;;;0.40;0.40;;;3.80;99.90;;;;;;4925302;29;20040;-77
2022/01/21 05:17:05;;;;;;;7.53;1.80;;;3.80;99.90;;;;;;4892297;29;20450;-76
2022/01/21 05:19:31;;;;;;;1.20;1.13;;;3.80;99.90;;;;;;4925042;29;20070;-77
2022/01/21 05:21:56;;;;;;;0.97;0.30;;;3.80;99.90;;;;;;4920683;29;20306;-77
2022/01/21 05:24:22;;;;;;;6.17;0.63;;;3.80;99.90;;;;;;4944063;29;20134;-77
2022/01/21 05:26:57;;;;;;;2.33;1.60;;;3.80;99.90;;;;;;4926173;29;20070;-77
2022/01/21 05:29:25;;;;;;;0.10;0.10;;;3.90;99.90;;;;;;4925712;29;20051;-77
2022/01/21 05:31:51;;;;;;;0.27;0.27;;;3.80;99.90;;;;;;4908003;29;20055;-77
2022/01/21 05:34:17;;;;;;;0.50;0.43;;;3.80;99.90;;;;;;4923301;29;20088;-77
2022/01/21 05:36:43;;;;;;;0.70;0.70;;;3.90;99.90;;;;;;4925265;29;20047;-77
2022/01/21 05:39:10;;;;;;;6.00;1.27;;;3.80;99.90;;;;;;4925449;29;20422;-76
2022/01/21 05:41:38;;;;;;;1.20;0.60;;;3.80;99.90;;;;;;4923209;29;20580;-77
2022/01/21 05:44:16;;;;;;;1.70;1.03;;;3.80;99.90;;;;;;4924644;29;20048;-77
2022/01/21 05:46:57;;;;;;;1.23;0.40;;;3.80;99.90;;;;;;4910587;29;20059;-76
2022/01/21 05:49:24;;;;;;;13.03;0.93;;;3.80;99.90;;;;;;4907324;29;20517;-77
2022/01/21 05:51:52;;;;;;;5.47;0.73;;;3.80;99.90;;;;;;4925412;29;20312;-77
2022/01/21 05:54:24;;;;;;;6.13;0.67;;;3.80;99.90;;;;;;4924637;29;20075;-77
2022/01/21 05:56:49;;;;;;;0.47;0.43;;;3.80;99.90;;;;;;4906742;29;20059;-77
2022/01/21 05:59:15;;;;;;;2.23;1.20;;;3.80;99.90;;;;;;4925153;29;20296;-77
2022/01/21 06:01:40;;;;;;;0.13;0.13;;;3.80;99.90;;;;;;4906369;29;20209;-76
2022/01/21 06:04:06;;;;;;;3.20;0.97;;;3.80;99.90;;;;;;4906986;29;20063;-77
2022/01/21 06:06:33;;;;;;;0.80;0.80;;;3.80;99.90;;;;;;4924393;29;20131;-77
2022/01/21 06:08:58;;;;;;;14.73;2.00;;;3.80;99.90;;;;;;4907492;29;20050;-77
2022/01/21 06:11:24;;;;;;;1.43;1.33;;;3.80;99.90;;;;;;4922946;29;20036;-77
2022/01/21 06:13:50;;;;;;;0.97;0.20;;;3.80;99.90;;;;;;4924426;29;20090;-77
2022/01/21 06:16:17;;;;;;;6.43;1.17;;;3.80;99.90;;;;;;4935085;29;20516;-78
2022/01/21 06:18:44;;;;;;;1.00;0.93;;;3.80;99.90;;;;;;4943436;29;20047;-76
2022/01/21 06:21:09;;;;;;;11.77;2.47;;;3.80;99.90;;;;;;4921927;29;20386;-77
2022/01/21 06:23:35;;;;;;;1.20;0.97;;;3.80;99.90;;;;;;4942708;29;20054;-77
2022/01/21 06:26:01;;;;;;;6.70;0.77;;;3.80;99.90;;;;;;4938769;29;20566;-77
2022/01/21 06:28:27;;;;;;;1.97;0.87;;;3.80;99.90;;;;;;4907555;29;20066;-77
2022/01/21 06:30:52;;;;;;;5.67;1.50;;;3.80;99.90;;;;;;4937152;29;20102;-77
2022/01/21 06:33:20;;;;;;;2.00;1.70;;;3.90;99.90;;;;;;4926045;29;20126;-77
2022/01/21 06:35:46;;;;;;;3.10;0.57;;;3.90;99.90;;;;;;4943929;29;20043;-76
2022/01/21 06:38:12;;;;;;;7.90;1.93;;;3.90;99.90;;;;;;4942930;29;20722;-76
2022/01/21 06:40:37;;;;;;;5.77;2.03;;;3.90;99.90;;;;;;4907703;29;20050;-75
2022/01/21 06:43:03;;;;;;;1.07;0.60;;;3.90;99.90;;;;;;4905991;29;20059;-76
2022/01/21 06:45:29;;;;;;;2.53;1.50;;;3.90;99.90;;;;;;4922914;29;20043;-76
2022/01/21 06:47:58;;;;;;;9.40;1.37;;;3.90;99.90;;;;;;4923843;29;20075;-76
2022/01/21 06:50:28;;;;;;;1.63;0.80;;;3.90;99.90;;;;;;4923562;29;20036;-76
2022/01/21 06:52:54;;;;;;;1.67;1.37;;;4.00;99.90;;;;;;4923675;29;20123;-76
2022/01/21 06:55:19;;;;;;;1.47;1.03;;;4.00;99.90;;;;;;4937529;28;20038;-76
2022/01/21 06:57:45;;;;;;;9.87;1.90;;;4.00;99.90;;;;;;4933370;29;20558;-76
2022/01/21 07:00:16;;;;;;;0.57;0.53;;;4.00;99.90;;;;;;4906611;29;20069;-76
2022/01/21 07:02:42;;;;;;;1.73;1.27;;;4.00;99.90;;;;;;4918423;29;20565;-77
2022/01/21 07:05:08;;;;;;;0.50;0.50;;;4.00;99.90;;;;;;4925520;29;20149;-76
2022/01/21 07:07:34;;;;;;;4.83;1.13;;;4.00;99.90;;;;;;4909508;29;20058;-77
2022/01/21 07:10:00;;;;;;;1.90;1.30;;;4.00;99.90;;;;;;4939583;28;20028;-79
2022/01/21 07:12:27;;;;;;;3.13;1.13;;;4.00;99.90;;;;;;4940257;29;20114;-80
2022/01/21 07:14:52;;;;;;;3.67;1.83;;;4.00;99.90;;;;;;4925580;29;20047;-80
2022/01/21 07:17:18;;;;;;;2.17;1.00;;;4.00;99.90;;;;;;4942566;29;20409;-81
2022/01/21 07:19:44;;;;;;;10.50;2.60;;;4.00;99.90;;;;;;4942992;29;20549;-81
2022/01/21 07:22:09;;;;;;;4.43;2.97;;;4.00;99.90;;;;;;4925488;29;20051;-81
2022/01/21 07:24:35;;;;;;;2.37;1.77;;;4.00;99.90;;;;;;4924892;29;20055;-81
2022/01/21 07:27:00;;;;;;;3.30;0.87;;;4.00;99.90;;;;;;4908849;29;20055;-75
2022/01/21 07:29:26;;;;;;;2.33;1.13;;;4.00;99.90;;;;;;4909440;29;20396;-75
2022/01/21 07:31:54;;;;;;;16.33;2.53;;;4.00;99.90;;;;;;4914832;29;20105;-75
2022/01/21 07:34:21;;;;;;;4.80;1.57;;;4.00;99.90;;;;;;4935220;29;20047;-76
2022/01/21 07:36:46;;;;;;;4.43;2.03;;;4.00;99.90;;;;;;4933776;29;20043;-75
2022/01/21 07:39:12;;;;;;;7.93;2.73;;;4.00;99.90;;;;;;4920790;29;20614;-76
2022/01/21 07:41:38;;;;;;;8.80;1.23;;;3.90;99.90;;;;;;4926067;29;20051;-75
2022/01/21 07:44:03;;;;;;;22.70;1.83;;;3.90;99.90;;;;;;4942031;29;20047;-76
2022/01/21 07:46:29;;;;;;;1.40;1.33;;;3.90;99.90;;;;;;4927436;29;20047;-75
2022/01/21 07:48:56;;;;;;;15.57;1.50;;;3.90;99.90;;;;;;4940411;29;20333;-75
2022/01/21 07:51:22;;;;;;;4.17;1.23;;;3.90;99.90;;;;;;4927561;29;20081;-76
2022/01/21 07:53:48;;;;;;;3.07;1.73;;;3.90;99.90;;;;;;4940113;29;20047;-75
2022/01/21 07:56:14;;;;;;;1.50;1.00;;;3.90;99.90;;;;;;4926684;29;20639;-75
2022/01/21 07:58:40;;;;;;;3.50;1.10;;;3.90;99.90;;;;;;4940383;29;20296;-75
2022/01/21 08:01:05;;;;;;;1.80;1.30;;;3.90;99.90;;;;;;4927952;29;20391;-75
2022/01/21 08:03:31;;;;;;;20.10;1.10;;;3.90;99.90;;;;;;4936786;29;20426;-75
2022/01/21 08:05:56;;;;;;;1.50;1.13;;;3.90;99.90;;;;;;4924347;29;20047;-76
2022/01/21 08:08:24;;;;;;;2.17;0.97;;;4.00;99.90;;;;;;4934354;29;20050;-78
2022/01/21 08:10:50;;;;;;;10.47;1.80;;;4.00;99.90;;;;;;4940864;28;20051;-74
2022/01/21 08:13:15;;;;;;;2.77;1.07;;;4.00;99.90;;;;;;4932279;28;20082;-82
2022/01/21 08:15:41;;;;;;;10.67;1.13;;;4.00;99.90;;;;;;4946389;28;20062;-82
2022/01/21 08:18:06;;;;;;;8.27;2.13;;;4.10;99.90;;;;;;4944574;29;20049;-83
2022/01/21 08:20:32;;;;;;;4.70;1.40;;;4.10;99.90;;;;;;4943778;28;20055;-83
2022/01/21 08:22:58;;;;;;;0.97;0.90;;;4.10;99.90;;;;;;4912916;29;20075;-83
2022/01/21 08:25:24;;;;;;;4.80;2.03;;;4.20;99.90;;;;;;4940859;29;20055;-84
2022/01/21 08:27:50;;;;;;;9.77;2.23;;;4.20;99.90;;;;;;4919554;29;20459;-84
2022/01/21 08:30:16;;;;;;;9.67;1.87;;;4.20;99.90;;;;;;4919885;28;20112;-81
2022/01/21 08:32:42;;;;;;;5.80;2.20;;;4.20;99.90;;;;;;4940909;28;20046;-79
2022/01/21 08:35:08;;;;;;;7.30;1.97;;;4.30;99.90;;;;;;4936636;28;20142;-80
2022/01/21 08:37:35;;;;;;;5.80;1.47;;;4.30;99.90;;;;;;4907174;28;20103;-85
2022/01/21 08:40:04;;;;;;;21.00;2.03;;;4.30;99.90;;;;;;4924018;28;20074;-89
2022/01/21 08:42:30;;;;;;;1.00;1.00;;;4.30;99.90;;;;;;4910858;29;20071;-85
2022/01/21 08:44:55;;;;;;;1.40;0.97;;;4.40;99.90;;;;;;4942582;29;20092;-84
2022/01/21 08:47:22;;;;;;;2.43;1.13;;;4.40;99.90;;;;;;4926454;29;20047;-82
2022/01/21 08:49:49;;;;;;;0.73;0.73;;;4.40;99.90;;;;;;4944485;29;20048;-84
2022/01/21 08:52:19;;;;;;;6.70;1.57;;;4.40;99.90;;;;;;4945168;29;20054;-84
2022/01/21 08:54:47;;;;;;;8.43;2.27;;;4.40;99.90;;;;;;4941007;28;20091;-83
2022/01/21 08:57:13;;;;;;;1.80;1.20;;;4.50;99.90;;;;;;4925480;29;20078;-87
2022/01/21 08:59:38;;;;;;;1.20;1.13;;;4.50;99.90;;;;;;4917442;28;20362;-89
2022/01/21 09:02:04;;;;;;;3.08;1.40;;;4.50;99.90;;;;;;4928393;29;20624;-86
2022/01/21 09:04:30;;;;;;;9.17;0.87;;;4.50;99.90;;;;;;4951190;28;20058;-87
2022/01/21 09:06:56;;;;;;;3.60;2.20;;;4.60;99.90;;;;;;4936802;28;20502;-89
2022/01/21 09:09:21;;;;;;;5.97;1.63;;;4.60;99.90;;;;;;4909512;29;20086;-84
2022/01/21 09:11:47;;;;;;;1.97;1.20;;;4.60;99.90;;;;;;4922929;29;20040;-85
2022/01/21 09:14:12;;;;;;;6.60;1.90;;;4.60;99.90;;;;;;4927944;29;20083;-86
2022/01/21 09:16:39;;;;;;;19.17;1.57;;;4.70;99.90;;;;;;4926853;29;20047;-79
2022/01/21 09:19:05;;;;;;;1.35;1.08;;;4.80;99.90;;;;;;4939286;28;20051;-79
2022/01/21 09:21:34;;;;;;;3.63;1.63;;;4.80;99.90;;;;;;4944022;28;20054;-79
2022/01/21 09:24:01;;;;;;;4.10;1.10;;;4.80;99.90;;;;;;4926475;29;20054;-79
2022/01/21 09:26:26;;;;;;;3.03;1.20;;;4.80;99.90;;;;;;4925237;29;20136;-79
2022/01/21 09:28:52;;;;;;;6.13;1.92;;;4.90;99.90;;;;;;4939819;28;20165;-79
2022/01/21 09:31:19;;;;;;;8.02;2.38;;;5.00;99.90;;;;;;4924874;29;20413;-80
2022/01/21 09:33:45;;;;;;;6.00;1.08;;;5.00;99.90;;;;;;4941317;29;20047;-79
2022/01/21 09:36:12;;;;;;;4.22;1.10;;;5.10;99.90;;;;;;4911023;29;20059;-84
2022/01/21 09:38:38;;;;;;;1.87;1.10;;;5.10;99.90;;;;;;4943622;29;20547;-79
2022/01/21 09:41:06;;;;;;;0.73;0.73;;;5.10;99.90;;;;;;4920811;28;20051;-80
2022/01/21 09:43:33;;;;;;;17.35;2.95;;;5.20;99.90;;;;;;4939866;29;20516;-80
2022/01/21 09:46:04;;;;;;;7.13;0.93;;;5.30;99.90;;;;;;4922462;29;20062;-79
2022/01/21 09:48:35;;;;;;;1.67;0.57;;;5.30;99.90;;;;;;4925908;29;20858;-80
2022/01/21 09:51:02;;;;;;;17.92;2.00;;;5.30;99.90;;;;;;4942680;29;20114;-79
2022/01/21 09:53:37;;;;;;;15.90;1.25;;;5.40;99.90;;;;;;4941440;28;20039;-89
2022/01/21 09:56:05;;;;;;;0.60;0.60;;;5.50;99.90;;;;;;4909441;29;20047;-77
2022/01/21 09:58:32;;;;;;;2.88;1.75;;;5.50;99.90;;;;;;4925122;29;20151;-76
2022/01/21 10:01:01;;;;;;;10.13;1.75;;;5.50;99.90;;;;;;4939841;29;20062;-76
2022/01/21 10:03:27;;;;;;;2.03;1.33;;;5.60;99.90;;;;;;4942868;29;20431;-76
2022/01/21 10:05:54;;;;;;;0.75;0.75;;;5.60;99.90;;;;;;4939597;28;20111;-76
2022/01/21 10:08:22;;;;;;;11.55;2.20;;;5.60;99.90;;;;;;4925643;29;20059;-76
2022/01/21 10:10:47;;;;;;;7.25;1.40;;;5.60;99.90;;;;;;4924782;29;20051;-76
2022/01/21 10:13:19;;;;;;;0.30;0.30;;;5.60;99.90;;;;;;4939738;29;20398;-76
2022/01/21 10:15:46;;;;;;;0.32;0.32;;;5.70;99.90;;;;;;4920904;29;20050;-77
2022/01/21 10:18:22;;;;;;;2.00;1.50;;;5.70;99.90;;;;;;4911722;29;20179;-83
2022/01/21 10:21:11;;;;;;;0.40;0.40;;;5.80;99.90;;;;;;4913573;29;20054;-77
2022/01/21 10:23:39;;;;;;;1.95;0.65;;;5.80;99.90;;;;;;4942673;29;20514;-76
2022/01/21 10:26:09;;;;;;;0.52;0.52;;;5.80;99.90;;;;;;4924198;29;20094;-77
2022/01/21 10:28:36;;;;;;;0.77;0.77;;;5.80;99.90;;;;;;4937959;28;20042;-75
2022/01/21 10:31:16;;;;;;;0.45;0.45;;;5.90;99.90;;;;;;4935015;29;20878;-78
2022/01/21 10:33:48;;;;;;;1.48;0.90;;;5.90;99.90;;;;;;4925505;29;20039;-76
2022/01/21 10:36:23;;;;;;;0.40;0.40;;;6.00;99.90;;;;;;4941918;29;20043;-76
2022/01/21 10:38:51;;;;;;;6.07;1.83;;;6.00;99.90;;;;;;4925548;28;20909;-77
2022/01/21 10:41:19;;;;;;;8.13;2.03;;;6.00;99.90;;;;;;4913569;29;20047;-76
2022/01/21 10:44:01;;;;;;;8.80;1.77;;;6.10;99.90;;;;;;4913122;29;20074;-76
2022/01/21 10:46:26;;;;;;;0.97;0.97;;;6.10;99.90;;;;;;4930151;29;20232;-76
2022/01/21 10:48:58;;;;;;;2.92;0.80;;;6.10;99.90;;;;;;4930685;29;20035;-76
2022/01/21 10:51:29;;;;;;;7.95;0.90;;;6.10;99.90;;;;;;4930784;29;20354;-76
2022/01/21 10:53:57;;;;;;;9.27;1.08;;;6.20;99.90;;;;;;4926196;28;20666;-76
2022/01/21 10:56:24;;;;;;;9.13;1.65;;;6.20;99.90;;;;;;4904192;29;20040;-76
2022/01/21 10:58:52;;;;;;;1.65;0.93;;;6.20;99.90;;;;;;4921505;29;20051;-76
2022/01/21 11:01:22;;;;;;;1.55;1.10;;;6.20;99.90;;;;;;4904359;29;20043;-76
2022/01/21 11:04:11;;;;;;;9.23;1.48;;;6.20;99.90;;;;;;4921005;28;20048;-76
2022/01/21 11:06:49;;;;;;;11.70;1.88;;;6.20;99.90;;;;;;4919436;29;20118;-76
2022/01/21 11:09:18;;;;;;;5.18;1.13;;;6.20;99.90;;;;;;4920369;29;20040;-76
2022/01/21 11:12:09;;;;;;;4.63;0.98;;;6.30;99.90;;;;;;4911062;29;20125;-76
2022/01/21 11:14:36;;;;;;;3.90;1.33;;;6.30;99.90;;;;;;4911762;29;20052;-76
2022/01/21 11:17:06;;;;;;;0.50;0.50;;;6.30;99.90;;;;;;4934915;28;20047;-78
2022/01/21 11:19:35;;;;;;;7.32;0.95;;;6.30;99.90;;;;;;4923880;28;20065;-78
2022/01/21 11:22:04;;;;;;;4.55;1.52;;;6.30;99.90;;;;;;4941067;28;20044;-78
2022/01/21 11:24:30;;;;;;;1.55;1.33;;;6.30;99.90;;;;;;4941540;29;20552;-78
2022/01/21 11:27:08;;;;;;;4.45;1.00;;;6.30;99.90;;;;;;4923571;29;20043;-78
2022/01/21 11:29:34;;;;;;;1.00;0.88;;;6.30;99.90;;;;;;4938855;29;20054;-78
2022/01/21 11:32:00;;;;;;;0.30;0.30;;;6.30;99.90;;;;;;4906109;29;20078;-78
2022/01/21 11:34:26;;;;;;;10.82;0.70;;;6.40;99.90;;;;;;4905481;29;20043;-78
2022/01/21 11:36:53;;;;;;;7.10;1.58;;;6.40;99.90;;;;;;4922962;29;20051;-78
2022/01/21 11:39:21;;;;;;;1.05;0.80;;;6.40;99.90;;;;;;4922536;29;20044;-78
2022/01/21 11:41:50;;;;;;;1.65;1.55;;;6.40;99.90;;;;;;4921331;29;20560;-78
2022/01/21 11:44:20;;;;;;;0.82;0.55;;;6.40;99.90;;;;;;4922441;29;20055;-78
2022/01/21 11:49:37;;;;;;;2.53;2.33;;;6.40;99.90;;;;;;4900878;29;20056;-83
2022/01/21 11:52:18;;;;;;;0.73;0.63;;;6.40;99.90;;;;;;4925369;29;20074;-83
2022/01/21 11:54:45;;;;;;;2.60;1.00;;;6.50;99.90;;;;;;4941969;28;20051;-83
2022/01/21 11:57:12;;;;;;;1.70;1.48;;;6.50;99.90;;;;;;4937857;28;20075;-81
2022/01/21 12:00:07;;;;;;;2.63;1.35;;;6.50;99.90;;;;;;4938373;28;20040;-81
2022/01/21 12:02:33;;;;;;;10.90;1.90;;;6.50;99.90;;;;;;4937981;28;20051;-79
2022/01/21 12:05:07;;;;;;;9.45;1.25;;;6.60;99.90;;;;;;4937571;28;20138;-79
2022/01/21 12:07:44;;;;;;;18.80;1.48;;;6.50;99.90;;;;;;4921833;29;20044;-82
2022/01/21 12:10:21;;;;;;;9.77;1.30;;;6.50;99.90;;;;;;4936399;28;20059;-82
2022/01/21 12:12:55;;;;;;;10.13;1.42;;;6.60;99.90;;;;;;4927671;29;20081;-84
2022/01/21 12:18:34;;;;;;;0.50;0.40;;;6.60;99.90;;;;;;4930130;28;20151;-82
2022/01/21 12:21:30;;;;;;;3.72;0.95;;;6.60;99.90;;;;;;4923461;29;20805;-82
2022/01/21 12:24:00;;;;;;;2.00;1.15;;;6.60;99.90;;;;;;4908005;29;20043;-81
2022/01/21 12:26:27;;;;;;;1.50;1.17;;;6.60;99.90;;;;;;4923647;29;20067;-80
2022/01/21 12:28:52;;;;;;;6.20;1.30;;;6.70;99.90;;;;;;4908462;29;20050;-79
2022/01/21 12:31:20;;;;;;;5.30;1.35;;;6.70;99.90;;;;;;4925124;29;20047;-79
2022/01/21 12:33:53;;;;;;;5.93;1.80;;;6.70;99.90;;;;;;4908955;29;20052;-79
2022/01/21 12:36:23;;;;;;;3.15;1.67;;;6.70;99.90;;;;;;4907999;29;20184;-79
2022/01/21 12:41:17;;;;;;;0.70;0.68;;;6.60;99.90;;;;;;4934349;28;20084;-80
2022/01/21 12:43:46;;;;;;;6.70;1.35;;;6.60;99.90;;;;;;4926125;29;20090;-80
2022/01/21 12:46:16;;;;;;;2.35;1.02;;;6.60;99.90;;;;;;4926499;29;20059;-80
2022/01/21 12:48:47;;;;;;;4.28;0.55;;;6.60;99.90;;;;;;4943007;29;20058;-77
2022/01/21 12:51:16;;;;;;;8.25;1.52;;;6.60;99.90;;;;;;4942328;29;20039;-77
2022/01/21 12:56:47;;;;;;;22.80;2.80;;;6.60;99.90;;;;;;4940718;29;20066;-77
2022/01/21 12:59:23;;;;;;;19.38;1.33;;;6.60;99.90;;;;;;4944066;29;20044;-78
2022/01/21 13:01:50;;;;;;;9.75;1.98;;;6.60;99.90;;;;;;4943785;29;20043;-77
2022/01/21 13:04:31;;;;;;;7.07;1.35;;;6.60;99.90;;;;;;4944115;29;20086;-77
2022/01/21 13:07:16;;;;;;;1.17;1.05;;;6.60;99.90;;;;;;4926304;29;20051;-77
2022/01/21 13:10:01;;;;;;;5.82;1.83;;;6.60;99.90;;;;;;4944676;29;20054;-78
2022/01/21 13:15:48;;;;;;;1.30;1.13;;;6.60;99.90;;;;;;4900731;29;20113;-74
2022/01/21 13:18:19;;;;;;;4.78;1.55;;;6.60;99.90;;;;;;4907110;29;20048;-74
2022/01/21 13:20:47;;;;;;;1.65;1.25;;;6.70;99.90;;;;;;4922370;29;20058;-76
2022/01/21 13:26:13;;;;;;;7.25;1.67;;;6.60;99.90;;;;;;4911865;29;20063;-74
2022/01/21 13:28:55;;;;;;;30.05;1.77;;;6.60;99.90;;;;;;4929917;29;21258;-74
2022/01/21 13:31:21;;;;;;;3.13;2.33;;;6.70;99.90;;;;;;4912134;29;20106;-75
2022/01/21 13:33:47;;;;;;;17.00;1.73;;;6.60;99.90;;;;;;4933607;29;20486;-74
2022/01/21 13:36:12;;;;;;;9.38;0.88;;;6.70;99.90;;;;;;4925610;29;20502;-73
2022/01/21 13:38:41;;;;;;;4.90;1.50;;;6.60;99.90;;;;;;4929857;29;20046;-82
2022/01/21 13:41:11;;;;;;;11.07;1.33;;;6.70;99.90;;;;;;4906122;29;20051;-73
2022/01/21 13:43:41;;;;;;;3.20;1.20;;;6.60;99.90;;;;;;4928554;29;20620;-85
2022/01/21 13:46:09;;;;;;;0.45;0.45;;;6.60;99.90;;;;;;4941531;29;20043;-77
2022/01/21 13:48:36;;;;;;;1.17;1.02;;;6.70;99.90;;;;;;4942558;29;20054;-76
2022/01/21 13:51:04;;;;;;;4.55;1.65;;;6.70;99.90;;;;;;4925052;29;20055;-76
2022/01/21 13:53:30;;;;;;;3.83;1.25;;;6.70;99.90;;;;;;4942091;29;20051;-82